Time;durP1;ratioP1;P1;durP2;ratioP2;P2;SDS_P1;SDS_P2;PMS_P1;PMS_P2;Temp;Humidity;BMP_temperature;BMP_pressure;BME280_temperature;BME280_humidity;BME280_pressure;Samples;Min_cycle;Max_cycle;Signal;HPM_P1;HPM_P2
2022/10/26 00:02:00;;;;;;;3.80;2.37;;;;;;;;;;4991800;28;20213;-76
2022/10/26 00:05:05;;;;;;;5.70;2.20;;;;;;;;;;5002881;28;20177;-76
2022/10/26 00:08:09;;;;;;;7.07;2.87;;;;;;;;;;5015452;28;20178;-76
2022/10/26 00:11:14;;;;;;;7.40;2.07;;;;;;;;;;5014772;28;20208;-76
2022/10/26 00:14:18;;;;;;;5.57;2.20;;;;;;;;;;5014803;28;20181;-76
2022/10/26 00:17:22;;;;;;;6.70;2.10;;;;;;;;;;5002587;28;20675;-76
2022/10/26 00:20:26;;;;;;;10.53;2.50;;;;;;;;;;5002543;28;20185;-77
2022/10/26 00:23:31;;;;;;;7.33;2.50;;;;;;;;;;5014565;28;20202;-76
2022/10/26 00:26:35;;;;;;;4.97;2.40;;;;;;;;;;4991292;28;20197;-77
2022/10/26 00:29:39;;;;;;;3.77;2.20;;;;;;;;;;4991287;28;20189;-77
2022/10/26 00:32:43;;;;;;;4.83;2.07;;;;;;;;;;5002346;28;20186;-76
2022/10/26 00:35:52;;;;;;;5.33;2.50;;;;;;;;;;5002329;28;20182;-76
2022/10/26 00:38:57;;;;;;;5.27;2.80;;;;;;;;;;5014171;28;20220;-76
2022/10/26 00:42:01;;;;;;;4.83;2.67;;;;;;;;;;5014131;28;20221;-76
2022/10/26 00:45:20;;;;;;;5.47;2.13;;;;;;;;;;5002015;28;20177;-76
2022/10/26 00:48:30;;;;;;;5.20;2.60;;;;;;;;;;5013393;28;20197;-76
2022/10/26 00:51:40;;;;;;;4.60;2.77;;;;;;;;;;5002189;28;20676;-76
2022/10/26 00:54:44;;;;;;;3.60;2.50;;;;;;;;;;5002298;28;20178;-77
2022/10/26 00:57:50;;;;;;;8.57;2.70;;;;;;;;;;5014109;28;20549;-77
2022/10/26 01:00:54;;;;;;;4.03;2.20;;;;;;;;;;4990439;28;20217;-77
2022/10/26 01:03:59;;;;;;;8.30;2.97;;;;;;;;;;5013168;28;20177;-76
2022/10/26 01:07:04;;;;;;;8.30;2.20;;;;;;;;;;5013148;28;20173;-76
2022/10/26 01:10:09;;;;;;;9.03;2.77;;;;;;;;;;5013023;28;20197;-76
2022/10/26 01:13:15;;;;;;;5.27;2.73;;;;;;;;;;5001951;28;20538;-76
2022/10/26 01:16:34;;;;;;;5.83;2.60;;;;;;;;;;5013009;28;20185;-76
2022/10/26 01:19:57;;;;;;;8.07;2.80;;;;;;;;;;5012991;28;20178;-76
2022/10/26 01:23:07;;;;;;;3.43;2.53;;;;;;;;;;5001662;28;20185;-76
2022/10/26 01:26:36;;;;;;;3.80;2.10;;;;;;;;;;5001434;28;20181;-77
2022/10/26 01:30:08;;;;;;;5.30;2.63;;;;;;;;;;5001348;28;20173;-76
2022/10/26 01:33:43;;;;;;;5.57;2.50;;;;;;;;;;5001851;28;20628;-76
2022/10/26 01:36:54;;;;;;;2.87;2.40;;;;;;;;;;4989995;28;20197;-76
2022/10/26 01:40:06;;;;;;;5.17;2.20;;;;;;;;;;5001423;28;20209;-77
2022/10/26 01:43:13;;;;;;;6.33;2.80;;;;;;;;;;5001445;28;20185;-76
2022/10/26 01:46:21;;;;;;;7.47;2.77;;;;;;;;;;5015203;28;20197;-77
2022/10/26 01:49:30;;;;;;;5.83;2.73;;;;;;;;;;5005862;28;20169;-77
2022/10/26 01:52:34;;;;;;;6.97;2.83;;;;;;;;;;5016588;28;20209;-76
2022/10/26 01:55:47;;;;;;;5.13;2.63;;;;;;;;;;5016678;28;20521;-77
2022/10/26 01:59:25;;;;;;;3.47;2.70;;;;;;;;;;5016212;28;20213;-77
2022/10/26 02:02:37;;;;;;;4.73;2.77;;;;;;;;;;5005085;28;20216;-76
2022/10/26 02:06:05;;;;;;;5.00;3.10;;;;;;;;;;5005126;28;20201;-76
2022/10/26 02:09:35;;;;;;;5.20;2.73;;;;;;;;;;5005125;28;20625;-77
2022/10/26 02:13:08;;;;;;;4.93;2.57;;;;;;;;;;4993649;28;20225;-77
2022/10/26 02:16:24;;;;;;;6.23;3.00;;;;;;;;;;5005080;28;20185;-77
2022/10/26 02:19:34;;;;;;;9.50;2.80;;;;;;;;;;5016972;28;20673;-77
2022/10/26 02:22:44;;;;;;;4.27;2.60;;;;;;;;;;5004592;28;20221;-77
2022/10/26 02:25:53;;;;;;;4.90;2.87;;;;;;;;;;5005150;28;20513;-76
2022/10/26 02:29:01;;;;;;;4.00;2.57;;;;;;;;;;4993665;28;20174;-77
2022/10/26 02:32:07;;;;;;;5.97;3.10;;;;;;;;;;5004460;28;20217;-77
2022/10/26 02:35:14;;;;;;;9.63;3.10;;;;;;;;;;5004837;28;20189;-77
2022/10/26 02:38:19;;;;;;;4.60;2.60;;;;;;;;;;5015791;28;20225;-77
2022/10/26 02:41:27;;;;;;;4.70;2.50;;;;;;;;;;5013540;23;20234;-80
2022/10/26 02:44:39;;;;;;;7.90;2.73;;;;;;;;;;4973628;28;20203;-78
2022/10/26 02:47:43;;;;;;;5.90;3.10;;;;;;;;;;4981242;28;20191;-78
2022/10/26 02:50:59;;;;;;;6.40;2.43;;;;;;;;;;4970062;28;20214;-78
2022/10/26 02:54:13;;;;;;;7.47;3.10;;;;;;;;;;4981369;28;20187;-79
2022/10/26 02:57:21;;;;;;;6.00;2.80;;;;;;;;;;4980520;28;20670;-78
2022/10/26 03:00:25;;;;;;;5.37;2.70;;;;;;;;;;4969454;28;20183;-77
2022/10/26 03:03:29;;;;;;;4.80;2.73;;;;;;;;;;4980644;28;20211;-78
2022/10/26 03:06:33;;;;;;;3.30;2.70;;;;;;;;;;4980531;28;20183;-77
2022/10/26 03:09:37;;;;;;;4.83;3.10;;;;;;;;;;4972938;28;20190;-78
2022/10/26 03:12:41;;;;;;;7.00;3.00;;;;;;;;;;4977693;28;20225;-78
2022/10/26 03:15:46;;;;;;;7.73;2.83;;;;;;;;;;4989014;28;20182;-78
2022/10/26 03:18:50;;;;;;;4.10;2.90;;;;;;;;;;4991875;28;20202;-79
2022/10/26 03:21:54;;;;;;;10.10;4.07;;;;;;;;;;4992159;28;20214;-79
2022/10/26 03:24:58;;;;;;;5.23;3.73;;;;;;;;;;5003480;28;20550;-77
2022/10/26 03:28:03;;;;;;;6.37;3.87;;;;;;;;;;5003488;28;20194;-79
2022/10/26 03:31:08;;;;;;;6.00;3.63;;;;;;;;;;4992288;28;20218;-79
2022/10/26 03:34:12;;;;;;;11.17;4.07;;;;;;;;;;4992101;28;20190;-79
2022/10/26 03:37:16;;;;;;;8.00;3.67;;;;;;;;;;5004591;28;20629;-79
2022/10/26 03:40:20;;;;;;;3.70;3.23;;;;;;;;;;5005481;28;20637;-78
2022/10/26 03:43:25;;;;;;;6.27;3.03;;;;;;;;;;5002880;28;20182;-79
2022/10/26 03:46:29;;;;;;;7.03;2.90;;;;;;;;;;4989809;28;20186;-81
2022/10/26 03:49:34;;;;;;;7.20;4.33;;;;;;;;;;4998660;28;20183;-80
2022/10/26 03:52:39;;;;;;;6.93;3.60;;;;;;;;;;4987881;28;20213;-77
2022/10/26 03:55:44;;;;;;;10.70;3.60;;;;;;;;;;4987690;28;20198;-78
2022/10/26 03:58:48;;;;;;;9.57;3.20;;;;;;;;;;4988219;28;20222;-78
2022/10/26 04:01:52;;;;;;;7.50;3.60;;;;;;;;;;4988101;28;20226;-77
2022/10/26 04:04:56;;;;;;;5.77;2.83;;;;;;;;;;5000132;28;20205;-78
2022/10/26 04:08:04;;;;;;;6.83;2.40;;;;;;;;;;4988213;28;20174;-77
2022/10/26 04:11:08;;;;;;;5.83;2.80;;;;;;;;;;4988087;28;20214;-77
2022/10/26 04:14:12;;;;;;;4.13;2.10;;;;;;;;;;5000436;28;20186;-78
2022/10/26 04:17:17;;;;;;;5.47;2.60;;;;;;;;;;5000376;28;20186;-78
2022/10/26 04:20:20;;;;;;;6.03;2.23;;;;;;;;;;4999254;28;20519;-78
2022/10/26 04:23:25;;;;;;;3.93;2.30;;;;;;;;;;4999525;28;20186;-77
2022/10/26 04:26:29;;;;;;;2.90;2.40;;;;;;;;;;4988443;28;20178;-78
2022/10/26 04:29:33;;;;;;;5.37;2.40;;;;;;;;;;4998984;28;20182;-77
2022/10/26 04:32:37;;;;;;;3.63;2.40;;;;;;;;;;4984167;28;20225;-78
2022/10/26 04:35:41;;;;;;;3.83;2.43;;;;;;;;;;4986068;28;20201;-78
2022/10/26 04:38:47;;;;;;;7.93;2.73;;;;;;;;;;4995943;28;20202;-78
2022/10/26 04:41:53;;;;;;;7.57;2.87;;;;;;;;;;4998809;28;20229;-78
2022/10/26 04:44:56;;;;;;;3.43;2.60;;;;;;;;;;4997900;28;20522;-78
2022/10/26 04:48:06;;;;;;;5.80;2.73;;;;;;;;;;4997750;28;20182;-78
2022/10/26 04:51:10;;;;;;;4.27;2.47;;;;;;;;;;4998872;28;20214;-78
2022/10/26 04:54:15;;;;;;;6.63;3.03;;;;;;;;;;4987214;28;20186;-78
2022/10/26 04:57:19;;;;;;;4.50;2.77;;;;;;;;;;4999595;28;20182;-78
2022/10/26 05:00:23;;;;;;;6.43;3.10;;;;;;;;;;4987528;28;20174;-78
2022/10/26 05:03:26;;;;;;;5.10;3.20;;;;;;;;;;4987488;28;20206;-77
2022/10/26 05:06:31;;;;;;;4.30;3.33;;;;;;;;;;4997417;28;20656;-77
2022/10/26 05:09:35;;;;;;;5.13;2.70;;;;;;;;;;4996838;28;20174;-78
2022/10/26 05:12:39;;;;;;;3.90;3.03;;;;;;;;;;4996431;28;20222;-78
2022/10/26 05:15:43;;;;;;;6.87;2.97;;;;;;;;;;4984327;28;20178;-78
2022/10/26 05:18:48;;;;;;;5.00;3.17;;;;;;;;;;4982849;28;20213;-78
2022/10/26 05:21:52;;;;;;;5.37;3.20;;;;;;;;;;4994294;28;20230;-78
2022/10/26 05:24:56;;;;;;;5.13;3.53;;;;;;;;;;4996680;28;20178;-78
2022/10/26 05:28:03;;;;;;;8.83;3.40;;;;;;;;;;4999303;28;20190;-78
2022/10/26 05:31:07;;;;;;;7.33;3.80;;;;;;;;;;4997532;28;20214;-79
2022/10/26 05:34:11;;;;;;;6.23;4.40;;;;;;;;;;4975672;28;20190;-78
2022/10/26 05:37:15;;;;;;;5.17;4.10;;;;;;;;;;4998921;28;20182;-78
2022/10/26 05:40:20;;;;;;;7.40;4.10;;;;;;;;;;4997637;28;20230;-78
2022/10/26 05:43:26;;;;;;;6.53;4.00;;;;;;;;;;4986710;28;20202;-78
2022/10/26 05:46:30;;;;;;;6.63;4.30;;;;;;;;;;4998660;28;20186;-77
2022/10/26 05:49:34;;;;;;;6.30;4.67;;;;;;;;;;4988041;28;20178;-77
2022/10/26 05:52:39;;;;;;;7.60;4.47;;;;;;;;;;4987582;28;20693;-79
2022/10/26 05:55:44;;;;;;;5.80;3.03;;;;;;;;;;4987826;28;20178;-79
2022/10/26 05:58:49;;;;;;;6.90;3.03;;;;;;;;;;4998000;28;20213;-78
2022/10/26 06:02:18;;;;;;;4.93;3.33;;;;;;;;;;4997004;28;20222;-79
2022/10/26 06:05:26;;;;;;;8.30;3.33;;;;;;;;;;4986149;28;20528;-78
2022/10/26 06:08:31;;;;;;;5.13;2.90;;;;;;;;;;4987829;28;20210;-77
2022/10/26 06:11:35;;;;;;;5.00;3.20;;;;;;;;;;4986341;28;20222;-79
2022/10/26 06:14:40;;;;;;;6.93;3.00;;;;;;;;;;4997664;28;20202;-77
2022/10/26 06:18:06;;;;;;;6.97;3.17;;;;;;;;;;4998179;28;20194;-79
2022/10/26 06:21:48;;;;;;;6.37;2.90;;;;;;;;;;4997783;28;20214;-78
2022/10/26 06:25:27;;;;;;;7.93;3.20;;;;;;;;;;4996444;28;20183;-78
2022/10/26 06:28:40;;;;;;;3.27;2.47;;;;;;;;;;4996710;28;20194;-78
2022/10/26 06:31:45;;;;;;;5.60;3.43;;;;;;;;;;4998036;28;20218;-78
2022/10/26 06:34:55;;;;;;;8.37;3.80;;;;;;;;;;4988959;28;20186;-79
2022/10/26 06:38:03;;;;;;;5.83;2.93;;;;;;;;;;4999880;28;20194;-79
2022/10/26 06:41:10;;;;;;;6.63;3.37;;;;;;;;;;4999696;28;20218;-77
2022/10/26 06:44:21;;;;;;;7.47;3.10;;;;;;;;;;4999743;28;20194;-78
2022/10/26 06:47:50;;;;;;;7.13;3.20;;;;;;;;;;4978032;28;20514;-79
2022/10/26 06:50:55;;;;;;;8.43;3.47;;;;;;;;;;5000170;28;20218;-78
2022/10/26 06:54:11;;;;;;;3.83;2.50;;;;;;;;;;4999876;28;20183;-77
2022/10/26 06:57:17;;;;;;;5.30;2.80;;;;;;;;;;4988975;28;20530;-78
2022/10/26 07:00:24;;;;;;;5.87;3.00;;;;;;;;;;4989886;28;20202;-78
2022/10/26 07:03:28;;;;;;;5.53;3.50;;;;;;;;;;5001782;28;20190;-79
2022/10/26 07:06:32;;;;;;;4.37;2.60;;;;;;;;;;4990148;28;20174;-79
2022/10/26 07:09:37;;;;;;;8.63;3.13;;;;;;;;;;4988814;28;20645;-79
2022/10/26 07:12:41;;;;;;;7.80;3.47;;;;;;;;;;5003175;28;20222;-79
2022/10/26 07:15:46;;;;;;;6.43;3.13;;;;;;;;;;5003538;28;20178;-77
2022/10/26 07:18:50;;;;;;;7.33;2.67;;;;;;;;;;5004206;28;20186;-78
2022/10/26 07:21:58;;;;;;;10.50;3.50;;;;;;;;;;5003491;28;20221;-78
2022/10/26 07:25:02;;;;;;;3.43;2.60;;;;;;;;;;5002532;28;20182;-78
2022/10/26 07:28:09;;;;;;;4.63;2.70;;;;;;;;;;5002961;28;20232;-78
2022/10/26 07:31:13;;;;;;;4.40;2.27;;;;;;;;;;4990605;28;20218;-78
2022/10/26 07:34:17;;;;;;;3.67;1.97;;;;;;;;;;5001549;28;20182;-78
2022/10/26 07:37:21;;;;;;;3.30;2.33;;;;;;;;;;4989959;28;20182;-78
2022/10/26 07:40:25;;;;;;;3.73;2.40;;;;;;;;;;5000337;28;20210;-78
2022/10/26 07:43:30;;;;;;;6.20;2.40;;;;;;;;;;4988944;28;20190;-78
2022/10/26 07:46:34;;;;;;;4.93;3.17;;;;;;;;;;4988751;28;20198;-78
2022/10/26 07:49:38;;;;;;;3.87;2.47;;;;;;;;;;5000200;28;20194;-78
2022/10/26 07:52:42;;;;;;;3.80;2.83;;;;;;;;;;4988723;28;20217;-78
2022/10/26 07:55:57;;;;;;;3.37;2.63;;;;;;;;;;4999518;28;20174;-78
2022/10/26 07:59:01;;;;;;;4.63;2.30;;;;;;;;;;5000398;28;20182;-78
2022/10/26 08:02:05;;;;;;;5.40;2.07;;;;;;;;;;4999276;28;20217;-78
2022/10/26 08:05:10;;;;;;;6.53;1.90;;;;;;;;;;5000481;28;20661;-77
2022/10/26 08:08:14;;;;;;;1.90;1.47;;;;;;;;;;4998341;28;20194;-78
2022/10/26 08:11:18;;;;;;;4.03;2.20;;;;;;;;;;4998789;28;20213;-78
2022/10/26 08:14:22;;;;;;;2.40;1.73;;;;;;;;;;4998356;28;20182;-78
2022/10/26 08:17:27;;;;;;;4.70;1.90;;;;;;;;;;4997106;28;20182;-78
2022/10/26 08:20:32;;;;;;;4.47;2.10;;;;;;;;;;4985859;28;20205;-78
2022/10/26 08:23:36;;;;;;;4.70;1.80;;;;;;;;;;4997582;28;20186;-78
2022/10/26 08:26:41;;;;;;;4.27;1.70;;;;;;;;;;4996452;28;20178;-77
2022/10/26 08:29:45;;;;;;;2.43;1.63;;;;;;;;;;4997011;28;20526;-78
2022/10/26 08:32:57;;;;;;;3.53;1.60;;;;;;;;;;4996531;28;20178;-78
2022/10/26 08:36:04;;;;;;;6.20;2.37;;;;;;;;;;4995729;28;20187;-77
2022/10/26 08:39:08;;;;;;;3.53;1.70;;;;;;;;;;4996833;28;20178;-78
2022/10/26 08:42:18;;;;;;;4.20;1.57;;;;;;;;;;5022227;23;20225;-88
2022/10/26 08:45:27;;;;;;;2.97;1.73;;;;;;;;;;4992087;28;20539;-88
2022/10/26 08:48:36;;;;;;;5.80;1.83;;;;;;;;;;5010723;28;20177;-88
2022/10/26 08:51:41;;;;;;;4.60;1.97;;;;;;;;;;5022204;28;20177;-88
2022/10/26 08:54:52;;;;;;;2.20;1.93;;;;;;;;;;4979766;28;20181;-88
2022/10/26 08:58:00;;;;;;;2.87;1.90;;;;;;;;;;4990877;28;20197;-88
2022/10/26 09:01:04;;;;;;;3.77;1.70;;;;;;;;;;4980011;28;20565;-88
2022/10/26 09:04:11;;;;;;;4.40;1.67;;;;;;;;;;4979947;28;20185;-88
2022/10/26 09:07:39;;;;;;;3.20;1.30;;;;;;;;;;5002405;28;20178;-88
2022/10/26 09:10:49;;;;;;;6.77;1.40;;;;;;;;;;4979877;28;20177;-88
2022/10/26 09:13:57;;;;;;;5.17;1.60;;;;;;;;;;5001987;28;20217;-88
2022/10/26 09:17:15;;;;;;;4.57;1.80;;;;;;;;;;4979816;28;20186;-88
2022/10/26 09:20:45;;;;;;;2.93;1.63;;;;;;;;;;4991034;28;20659;-88
2022/10/26 09:24:06;;;;;;;3.07;1.73;;;;;;;;;;5001551;28;20690;-88
2022/10/26 09:27:26;;;;;;;4.23;1.57;;;;;;;;;;4990747;28;20185;-88
2022/10/26 09:30:31;;;;;;;3.73;1.33;;;;;;;;;;4979820;28;20181;-88
2022/10/26 09:33:39;;;;;;;6.40;1.27;;;;;;;;;;4990335;28;20213;-88
2022/10/26 09:36:43;;;;;;;5.17;1.70;;;;;;;;;;4979610;28;20513;-88
2022/10/26 09:40:09;;;;;;;3.10;1.67;;;;;;;;;;4990779;28;20217;-88
2022/10/26 09:43:18;;;;;;;3.53;1.40;;;;;;;;;;4979393;28;20233;-88
2022/10/26 09:46:49;;;;;;;4.03;1.40;;;;;;;;;;4990618;28;20182;-88
2022/10/26 09:49:57;;;;;;;4.27;1.83;;;;;;;;;;4990615;28;20182;-88
2022/10/26 09:53:02;;;;;;;1.87;1.30;;;;;;;;;;4979705;28;20209;-88
2022/10/26 09:56:09;;;;;;;1.77;1.60;;;;;;;;;;4992563;28;20201;-88
2022/10/26 09:59:14;;;;;;;1.80;1.20;;;;;;;;;;5015338;28;20181;-88
2022/10/26 10:02:42;;;;;;;4.03;1.80;;;;;;;;;;4991042;28;20206;-88
2022/10/26 10:05:46;;;;;;;4.00;1.43;;;;;;;;;;4990428;28;20190;-88
2022/10/26 10:09:09;;;;;;;8.27;2.00;;;;;;;;;;4994187;28;20186;-88
2022/10/26 10:12:19;;;;;;;2.47;1.50;;;;;;;;;;5017788;28;20545;-88
2022/10/26 10:15:24;;;;;;;1.97;1.37;;;;;;;;;;4994384;28;20634;-88
2022/10/26 10:18:29;;;;;;;2.67;1.47;;;;;;;;;;4994334;28;20182;-88
2022/10/26 10:22:00;;;;;;;4.77;1.60;;;;;;;;;;4993882;28;20201;-88
2022/10/26 10:25:22;;;;;;;4.43;1.83;;;;;;;;;;4983173;28;20186;-88
2022/10/26 10:28:27;;;;;;;2.70;1.67;;;;;;;;;;5005315;28;20620;-88
2022/10/26 10:31:32;;;;;;;2.63;1.43;;;;;;;;;;4993828;28;20177;-88
2022/10/26 10:34:36;;;;;;;3.27;1.40;;;;;;;;;;4993978;28;20186;-88
2022/10/26 10:37:44;;;;;;;3.60;1.43;;;;;;;;;;4993772;28;20181;-88
2022/10/26 10:40:52;;;;;;;4.87;1.60;;;;;;;;;;4993395;28;20206;-88
2022/10/26 10:44:15;;;;;;;4.83;1.20;;;;;;;;;;4982004;28;20579;-88
2022/10/26 10:47:31;;;;;;;3.27;1.40;;;;;;;;;;4993876;28;20178;-88
2022/10/26 10:50:35;;;;;;;4.10;1.43;;;;;;;;;;4993465;28;20508;-88
2022/10/26 10:53:48;;;;;;;5.60;1.70;;;;;;;;;;4992964;28;20221;-88
2022/10/26 10:56:55;;;;;;;1.83;1.10;;;;;;;;;;4982286;28;20177;-88
2022/10/26 11:00:03;;;;;;;3.50;1.50;;;;;;;;;;5004312;28;20197;-88
2022/10/26 11:03:23;;;;;;;4.50;1.37;;;;;;;;;;4993372;28;20222;-88
2022/10/26 11:06:29;;;;;;;3.80;1.47;;;;;;;;;;4993481;28;20186;-88
2022/10/26 11:09:38;;;;;;;3.00;1.30;;;;;;;;;;4993045;28;20201;-88
2022/10/26 11:12:50;;;;;;;2.27;1.37;;;;;;;;;;4981596;28;20213;-88
2022/10/26 11:16:00;;;;;;;3.17;1.30;;;;;;;;;;5004326;28;20533;-88
2022/10/26 11:19:16;;;;;;;5.43;1.40;;;;;;;;;;4981813;28;20173;-88
2022/10/26 11:22:29;;;;;;;7.67;1.80;;;;;;;;;;5003890;28;20209;-88
2022/10/26 11:25:41;;;;;;;5.03;1.60;;;;;;;;;;4992791;28;20190;-88
2022/10/26 11:28:58;;;;;;;4.53;1.40;;;;;;;;;;5004018;28;20543;-88
2022/10/26 11:32:26;;;;;;;4.13;1.30;;;;;;;;;;4992365;28;20181;-88
2022/10/26 11:35:40;;;;;;;4.97;1.73;;;;;;;;;;5004043;28;20177;-88
2022/10/26 11:38:53;;;;;;;4.27;1.40;;;;;;;;;;4992319;28;20193;-88
2022/10/26 11:42:18;;;;;;;5.93;1.40;;;;;;;;;;4981239;28;20225;-88
2022/10/26 11:45:31;;;;;;;7.27;1.73;;;;;;;;;;4992386;28;20186;-88
2022/10/26 11:48:59;;;;;;;5.50;1.57;;;;;;;;;;4981417;28;20177;-88
2022/10/26 11:52:23;;;;;;;5.10;1.63;;;;;;;;;;4992517;28;20544;-88
2022/10/26 11:55:28;;;;;;;8.33;1.73;;;;;;;;;;5003405;28;20190;-88
2022/10/26 11:58:32;;;;;;;3.77;1.53;;;;;;;;;;4981036;28;20177;-88
2022/10/26 12:01:36;;;;;;;4.53;1.40;;;;;;;;;;5014530;28;20209;-88
2022/10/26 12:04:43;;;;;;;6.40;1.67;;;;;;;;;;4992101;28;20644;-88
2022/10/26 12:07:51;;;;;;;7.10;1.57;;;;;;;;;;4992187;28;20177;-88
2022/10/26 12:11:01;;;;;;;4.30;1.57;;;;;;;;;;4992108;28;20178;-88
2022/10/26 12:14:24;;;;;;;4.10;2.03;;;;;;;;;;5002672;28;20213;-88
2022/10/26 12:17:36;;;;;;;5.00;1.90;;;;;;;;;;4991912;28;20529;-88
2022/10/26 12:21:02;;;;;;;9.50;1.80;;;;;;;;;;4991768;28;20209;-87
2022/10/26 12:24:22;;;;;;;4.90;1.80;;;;;;;;;;4991507;28;20695;-88
2022/10/26 12:27:38;;;;;;;10.67;1.70;;;;;;;;;;4991898;28;20190;-87
2022/10/26 12:30:42;;;;;;;5.03;2.07;;;;;;;;;;4980266;28;20182;-87
2022/10/26 12:33:50;;;;;;;5.50;1.83;;;;;;;;;;5014266;28;20213;-87
2022/10/26 12:36:54;;;;;;;3.13;1.40;;;;;;;;;;4991549;28;20173;-88
2022/10/26 12:40:34;;;;;;;5.77;1.70;;;;;;;;;;4980589;28;20181;-87
2022/10/26 12:43:40;;;;;;;5.73;1.90;;;;;;;;;;4980191;28;20236;-87
2022/10/26 12:46:44;;;;;;;7.23;1.90;;;;;;;;;;4991535;28;20177;-87
2022/10/26 12:50:06;;;;;;;5.67;1.90;;;;;;;;;;5002399;28;20205;-88
2022/10/26 12:53:14;;;;;;;5.23;1.83;;;;;;;;;;4980063;28;20217;-87
2022/10/26 12:56:27;;;;;;;6.07;2.00;;;;;;;;;;5002504;28;20517;-87
2022/10/26 12:59:59;;;;;;;5.67;1.83;;;;;;;;;;4991288;28;20193;-87
2022/10/26 13:03:21;;;;;;;5.17;1.43;;;;;;;;;;4988246;28;20209;-88
2022/10/26 13:06:49;;;;;;;4.63;1.67;;;;;;;;;;5002437;28;20190;-88
2022/10/26 13:09:59;;;;;;;8.27;1.97;;;;;;;;;;5002496;28;20608;-88
2022/10/26 13:13:05;;;;;;;5.03;1.80;;;;;;;;;;4971193;28;20223;-88
2022/10/26 13:16:11;;;;;;;4.83;1.60;;;;;;;;;;4982618;28;20186;-88
2022/10/26 13:19:29;;;;;;;5.63;1.50;;;;;;;;;;4982743;28;20178;-88
2022/10/26 13:22:45;;;;;;;8.10;1.60;;;;;;;;;;4971239;28;20225;-88
2022/10/26 13:26:03;;;;;;;7.53;1.73;;;;;;;;;;4960388;28;20530;-88
2022/10/26 13:29:09;;;;;;;3.43;1.70;;;;;;;;;;4971533;28;20518;-88
2022/10/26 13:32:15;;;;;;;4.20;1.93;;;;;;;;;;4971506;28;20213;-88
2022/10/26 13:35:21;;;;;;;6.80;1.80;;;;;;;;;;4982675;28;20186;-88
2022/10/26 13:38:32;;;;;;;6.03;1.63;;;;;;;;;;4971155;28;20181;-88
2022/10/26 13:41:39;;;;;;;4.00;1.83;;;;;;;;;;4960431;28;20206;-88
2022/10/26 13:44:51;;;;;;;3.77;1.90;;;;;;;;;;4975182;28;20179;-88
2022/10/26 13:48:01;;;;;;;8.20;2.03;;;;;;;;;;4986147;28;20186;-87
2022/10/26 13:51:35;;;;;;;5.33;1.80;;;;;;;;;;4986090;28;20183;-89
2022/10/26 13:54:55;;;;;;;6.43;1.80;;;;;;;;;;4986120;28;20526;-89
2022/10/26 13:58:08;;;;;;;5.67;1.83;;;;;;;;;;4978604;28;20201;-89
2022/10/26 14:01:16;;;;;;;9.13;1.70;;;;;;;;;;5005347;28;20205;-89
2022/10/26 14:04:27;;;;;;;4.63;1.60;;;;;;;;;;4983018;28;20178;-89
2022/10/26 14:07:40;;;;;;;9.30;1.80;;;;;;;;;;4983401;28;20185;-89
2022/10/26 14:10:47;;;;;;;7.33;1.80;;;;;;;;;;4983828;28;20205;-87
2022/10/26 14:13:51;;;;;;;6.13;1.83;;;;;;;;;;4994269;28;20687;-90
2022/10/26 14:16:55;;;;;;;6.90;1.70;;;;;;;;;;5005269;28;20186;-90
2022/10/26 14:20:02;;;;;;;4.00;1.60;;;;;;;;;;5005153;28;20178;-90
2022/10/26 14:23:28;;;;;;;8.57;2.00;;;;;;;;;;5004968;28;20213;-87
2022/10/26 14:26:40;;;;;;;4.90;1.93;;;;;;;;;;4994177;28;20186;-90
2022/10/26 14:29:44;;;;;;;8.20;2.10;;;;;;;;;;5004330;28;20197;-88
2022/10/26 14:32:48;;;;;;;8.53;1.90;;;;;;;;;;5004533;28;20220;-87
2022/10/26 14:35:53;;;;;;;7.57;2.00;;;;;;;;;;5004624;28;20536;-91
2022/10/26 14:39:02;;;;;;;5.53;1.83;;;;;;;;;;4982042;28;20197;-91
2022/10/26 14:42:26;;;;;;;7.83;2.13;;;;;;;;;;5004548;28;20229;-90
2022/10/26 14:48:34;;;;;;;7.13;2.17;;;;;;;;;;5060534;28;20223;-78
2022/10/26 14:51:38;;;;;;;8.03;1.97;;;;;;;;;;5059269;28;20213;-81
2022/10/26 14:55:02;;;;;;;5.43;1.90;;;;;;;;;;5021625;28;20177;-78
2022/10/26 14:58:14;;;;;;;8.50;1.90;;;;;;;;;;5043530;28;20189;-79
2022/10/26 15:01:21;;;;;;;6.50;1.70;;;;;;;;;;5043781;28;20236;-81
2022/10/26 15:04:36;;;;;;;6.30;1.87;;;;;;;;;;5045013;28;20185;-81
2022/10/26 15:07:42;;;;;;;3.47;1.60;;;;;;;;;;5033007;28;20188;-80
2022/10/26 15:10:47;;;;;;;4.60;1.57;;;;;;;;;;5019374;28;20216;-80
2022/10/26 15:13:52;;;;;;;5.77;2.03;;;;;;;;;;5019010;28;20189;-80
2022/10/26 15:16:58;;;;;;;6.73;1.80;;;;;;;;;;5031598;28;20193;-80
2022/10/26 15:20:05;;;;;;;5.63;1.63;;;;;;;;;;5009920;28;20196;-81
2022/10/26 15:23:12;;;;;;;10.50;1.90;;;;;;;;;;5018724;28;20679;-80
2022/10/26 15:26:17;;;;;;;4.73;1.77;;;;;;;;;;5019249;28;20249;-80
2022/10/26 15:29:44;;;;;;;4.17;2.13;;;;;;;;;;5019133;28;20536;-80
2022/10/26 15:32:49;;;;;;;5.80;1.97;;;;;;;;;;5008829;28;20185;-81
2022/10/26 15:36:38;;;;;;;9.50;2.33;;;;;;;;;;5029387;28;20184;-81
2022/10/26 15:39:43;;;;;;;7.43;1.97;;;;;;;;;;5017579;28;20173;-80
2022/10/26 15:42:57;;;;;;;5.37;2.07;;;;;;;;;;5003791;28;20204;-82
2022/10/26 15:46:01;;;;;;;3.73;1.73;;;;;;;;;;5016463;28;20181;-80
2022/10/26 15:49:06;;;;;;;9.23;2.30;;;;;;;;;;5016791;28;20528;-80
2022/10/26 15:52:11;;;;;;;4.37;2.00;;;;;;;;;;5027528;28;20217;-80
2022/10/26 15:55:16;;;;;;;8.63;2.10;;;;;;;;;;5017410;28;20540;-78
2022/10/26 15:58:21;;;;;;;8.43;2.30;;;;;;;;;;5016839;28;20197;-80
2022/10/26 16:01:27;;;;;;;7.00;1.90;;;;;;;;;;5020920;28;20213;-79
2022/10/26 16:04:32;;;;;;;6.20;1.87;;;;;;;;;;5027518;28;20177;-81
2022/10/26 16:07:38;;;;;;;5.37;1.90;;;;;;;;;;5027338;28;20177;-82
2022/10/26 16:10:43;;;;;;;8.90;1.97;;;;;;;;;;5027132;28;20216;-79
2022/10/26 16:13:47;;;;;;;5.93;1.87;;;;;;;;;;5005276;28;20173;-81
2022/10/26 16:16:51;;;;;;;5.63;1.83;;;;;;;;;;5018427;28;20635;-80
2022/10/26 16:19:55;;;;;;;6.43;1.77;;;;;;;;;;5006707;28;20200;-81
2022/10/26 16:23:05;;;;;;;3.67;2.00;;;;;;;;;;5028401;28;20216;-80
2022/10/26 16:26:09;;;;;;;4.73;1.93;;;;;;;;;;5017565;28;20540;-80
2022/10/26 16:29:13;;;;;;;5.70;2.03;;;;;;;;;;5006916;28;20493;-80
2022/10/26 16:32:17;;;;;;;3.63;1.97;;;;;;;;;;5008638;28;20204;-81
2022/10/26 16:35:22;;;;;;;7.97;2.33;;;;;;;;;;5017065;28;20180;-79
2022/10/26 16:38:27;;;;;;;5.90;2.03;;;;;;;;;;5009243;28;20173;-80
2022/10/26 16:41:31;;;;;;;4.37;1.90;;;;;;;;;;5017319;28;20220;-80
2022/10/26 16:44:36;;;;;;;9.23;2.23;;;;;;;;;;5018716;28;20181;-81
2022/10/26 16:47:41;;;;;;;4.73;1.90;;;;;;;;;;5015655;28;20204;-79
2022/10/26 16:50:45;;;;;;;7.23;2.63;;;;;;;;;;5016872;28;20216;-78
2022/10/26 16:53:52;;;;;;;8.83;2.80;;;;;;;;;;5027768;28;20216;-80
2022/10/26 16:56:56;;;;;;;9.77;1.90;;;;;;;;;;5027868;28;20177;-80
2022/10/26 17:00:01;;;;;;;9.60;2.13;;;;;;;;;;5027506;28;20508;-80
2022/10/26 17:03:06;;;;;;;5.53;1.80;;;;;;;;;;5038765;28;20209;-80
2022/10/26 17:06:11;;;;;;;9.03;2.30;;;;;;;;;;5017289;28;20196;-80
2022/10/26 17:09:15;;;;;;;4.97;1.97;;;;;;;;;;5038549;28;20631;-79
2022/10/26 17:12:20;;;;;;;7.37;3.03;;;;;;;;;;5027208;28;20216;-81
2022/10/26 17:15:25;;;;;;;5.97;2.00;;;;;;;;;;5026764;28;20521;-80
2022/10/26 17:18:30;;;;;;;10.53;1.90;;;;;;;;;;5028120;28;20181;-79
2022/10/26 17:21:35;;;;;;;6.03;2.00;;;;;;;;;;5039189;28;20216;-78
2022/10/26 17:24:39;;;;;;;13.23;2.53;;;;;;;;;;5026867;28;20178;-78
2022/10/26 17:27:43;;;;;;;12.60;2.60;;;;;;;;;;5038272;28;20196;-78
2022/10/26 17:30:47;;;;;;;7.73;1.90;;;;;;;;;;5027561;28;20220;-79
2022/10/26 17:33:52;;;;;;;6.47;1.83;;;;;;;;;;5023820;28;20181;-77
2022/10/26 17:36:56;;;;;;;9.53;2.00;;;;;;;;;;5021947;28;20528;-77
2022/10/26 17:40:00;;;;;;;5.87;2.60;;;;;;;;;;5026628;28;20627;-78
2022/10/26 17:43:04;;;;;;;6.50;2.63;;;;;;;;;;5038016;28;20209;-78
2022/10/26 17:46:20;;;;;;;9.87;2.67;;;;;;;;;;5035171;28;20520;-78
2022/10/26 17:49:24;;;;;;;5.83;2.07;;;;;;;;;;5042248;28;20181;-77
2022/10/26 17:52:28;;;;;;;4.73;1.90;;;;;;;;;;5043369;28;20216;-78
2022/10/26 17:55:32;;;;;;;8.23;2.13;;;;;;;;;;5041789;28;20187;-78
2022/10/26 17:58:37;;;;;;;6.57;1.93;;;;;;;;;;5012475;28;20192;-78
2022/10/26 18:01:42;;;;;;;6.63;2.17;;;;;;;;;;5032598;28;20216;-78
2022/10/26 18:04:46;;;;;;;4.07;1.97;;;;;;;;;;5036207;28;20168;-78
2022/10/26 18:07:50;;;;;;;7.50;2.07;;;;;;;;;;5033437;28;20204;-78
2022/10/26 18:10:55;;;;;;;6.07;1.63;;;;;;;;;;5015072;28;20683;-78
2022/10/26 18:13:59;;;;;;;7.07;2.10;;;;;;;;;;5032169;28;20177;-77
2022/10/26 18:17:03;;;;;;;5.03;2.30;;;;;;;;;;5034450;28;20180;-78
2022/10/26 18:20:08;;;;;;;8.17;2.10;;;;;;;;;;5020675;28;20177;-79
2022/10/26 18:23:12;;;;;;;5.73;2.50;;;;;;;;;;5006246;28;20212;-78
2022/10/26 18:26:29;;;;;;;8.13;2.40;;;;;;;;;;5023256;28;20177;-77
2022/10/26 18:29:34;;;;;;;6.10;2.60;;;;;;;;;;5034933;28;20631;-78
2022/10/26 18:32:38;;;;;;;12.03;2.23;;;;;;;;;;5016325;28;20208;-77
2022/10/26 18:35:45;;;;;;;12.93;2.47;;;;;;;;;;5029733;28;20180;-78
2022/10/26 18:38:49;;;;;;;6.00;2.57;;;;;;;;;;5031183;28;20181;-78
2022/10/26 18:41:53;;;;;;;8.17;2.30;;;;;;;;;;5035496;28;20217;-78
2022/10/26 18:45:01;;;;;;;6.43;2.50;;;;;;;;;;5018119;28;20169;-77
2022/10/26 18:48:08;;;;;;;5.57;2.10;;;;;;;;;;5028603;28;20201;-78
2022/10/26 18:51:15;;;;;;;9.17;2.40;;;;;;;;;;5050110;28;20220;-78
2022/10/26 18:54:19;;;;;;;6.53;2.00;;;;;;;;;;5042952;28;20196;-78
2022/10/26 18:57:25;;;;;;;5.27;2.00;;;;;;;;;;5062299;28;20176;-78